sensor_id;sensor_type;location;lat;lon;timestamp;pressure;altitude;pressure_sealevel;temperature;humidity
74649;BME280;63168;49.280;7.214;2023-04-19T00:02:02;99403.81;;;19.07;43.46
74649;BME280;63168;49.280;7.214;2023-04-19T00:04:29;99401.97;;;19.08;43.68
74649;BME280;63168;49.280;7.214;2023-04-19T00:06:55;99395.84;;;19.07;43.51
74649;BME280;63168;49.280;7.214;2023-04-19T00:09:20;99403.81;;;19.07;43.59
74649;BME280;63168;49.280;7.214;2023-04-19T00:11:46;99395.84;;;19.07;43.45
74649;BME280;63168;49.280;7.214;2023-04-19T00:14:11;99391.47;;;19.06;43.17
74649;BME280;63168;49.280;7.214;2023-04-19T00:16:37;99393.25;;;19.06;43.70
74649;BME280;63168;49.280;7.214;2023-04-19T00:19:02;99389.75;;;19.05;43.66
74649;BME280;63168;49.280;7.214;2023-04-19T00:21:29;99388.91;;;19.04;43.55
74649;BME280;63168;49.280;7.214;2023-04-19T00:23:55;99387.94;;;19.06;43.16
74649;BME280;63168;49.280;7.214;2023-04-19T00:26:20;99390.72;;;19.04;43.31
74649;BME280;63168;49.280;7.214;2023-04-19T00:28:46;99388.91;;;19.04;43.25
74649;BME280;63168;49.280;7.214;2023-04-19T00:31:11;99388.06;;;19.04;43.46
74649;BME280;63168;49.280;7.214;2023-04-19T00:33:37;99385.41;;;19.04;43.28
74649;BME280;63168;49.280;7.214;2023-04-19T00:36:02;99387.19;;;19.03;43.27
74649;BME280;63168;49.280;7.214;2023-04-19T00:38:29;99384.53;;;19.03;43.16
74649;BME280;63168;49.280;7.214;2023-04-19T00:40:54;99383.72;;;19.03;43.53
74649;BME280;63168;49.280;7.214;2023-04-19T00:43:20;99379.34;;;19.02;43.39
74649;BME280;63168;49.280;7.214;2023-04-19T00:45:46;99378.50;;;19.01;43.50
74649;BME280;63168;49.280;7.214;2023-04-19T00:48:12;99392.63;;;19.02;43.13
74649;BME280;63168;49.280;7.214;2023-04-19T00:50:38;99378.50;;;19.01;43.18
74649;BME280;63168;49.280;7.214;2023-04-19T00:53:05;99380.31;;;19.01;43.23
74649;BME280;63168;49.280;7.214;2023-04-19T00:55:32;99381.16;;;19.01;43.32
74649;BME280;63168;49.280;7.214;2023-04-19T00:57:58;99383.94;;;19.00;43.63
74649;BME280;63168;49.280;7.214;2023-04-19T01:00:24;99385.63;;;19.01;43.63
74649;BME280;63168;49.280;7.214;2023-04-19T01:02:49;99379.59;;;18.99;43.36
74649;BME280;63168;49.280;7.214;2023-04-19T01:05:14;99370.66;;;19.00;43.65
74649;BME280;63168;49.280;7.214;2023-04-19T01:07:40;99370.78;;;18.98;43.53
74649;BME280;63168;49.280;7.214;2023-04-19T01:10:06;99367.13;;;18.99;43.56
74649;BME280;63168;49.280;7.214;2023-04-19T01:12:33;99371.63;;;18.99;43.23
74649;BME280;63168;49.280;7.214;2023-04-19T01:14:59;99375.09;;;18.99;43.55
74649;BME280;63168;49.280;7.214;2023-04-19T01:17:25;99368.97;;;18.99;43.55
74649;BME280;63168;49.280;7.214;2023-04-19T01:19:57;99369.91;;;18.98;43.09
74649;BME280;63168;49.280;7.214;2023-04-19T01:22:24;99372.56;;;18.98;43.10
74649;BME280;63168;49.280;7.214;2023-04-19T01:24:50;99368.22;;;18.97;43.38
74649;BME280;63168;49.280;7.214;2023-04-19T01:27:15;99362.91;;;18.97;43.59
74649;BME280;63168;49.280;7.214;2023-04-19T01:29:41;99362.91;;;18.97;43.33
74649;BME280;63168;49.280;7.214;2023-04-19T01:32:07;99362.91;;;18.97;43.32
74649;BME280;63168;49.280;7.214;2023-04-19T01:34:32;99360.25;;;18.97;43.17
74649;BME280;63168;49.280;7.214;2023-04-19T01:36:58;99361.13;;;18.97;43.11
74649;BME280;63168;49.280;7.214;2023-04-19T01:39:25;99357.59;;;18.97;43.15
74649;BME280;63168;49.280;7.214;2023-04-19T01:41:51;99350.59;;;18.96;43.61
74649;BME280;63168;49.280;7.214;2023-04-19T01:44:17;99355.06;;;18.95;43.32
74649;BME280;63168;49.280;7.214;2023-04-19T01:46:42;99350.59;;;18.96;43.23
74649;BME280;63168;49.280;7.214;2023-04-19T01:49:07;99351.53;;;18.95;43.29
74649;BME280;63168;49.280;7.214;2023-04-19T01:51:33;99351.53;;;18.95;43.61
74649;BME280;63168;49.280;7.214;2023-04-19T01:53:58;99346.22;;;18.95;43.54
74649;BME280;63168;49.280;7.214;2023-04-19T01:56:25;99343.56;;;18.95;43.17
74649;BME280;63168;49.280;7.214;2023-04-19T01:58:50;99344.53;;;18.94;43.30
74649;BME280;63168;49.280;7.214;2023-04-19T02:01:15;99333.09;;;18.93;43.59
74649;BME280;63168;49.280;7.214;2023-04-19T02:03:41;99333.91;;;18.94;43.16
74649;BME280;63168;49.280;7.214;2023-04-19T02:06:09;99333.91;;;18.94;43.54
74649;BME280;63168;49.280;7.214;2023-04-19T02:08:35;99333.91;;;18.94;43.13
74649;BME280;63168;49.280;7.214;2023-04-19T02:11:05;99331.25;;;18.94;43.19
74649;BME280;63168;49.280;7.214;2023-04-19T02:13:32;99337.53;;;18.93;43.16
74649;BME280;63168;49.280;7.214;2023-04-19T02:15:57;99326.06;;;18.92;43.60
74649;BME280;63168;49.280;7.214;2023-04-19T02:18:22;99325.22;;;18.91;43.47
74649;BME280;63168;49.280;7.214;2023-04-19T02:20:48;99330.53;;;18.91;43.33
74649;BME280;63168;49.280;7.214;2023-04-19T02:23:14;99327.03;;;18.91;43.19
74649;BME280;63168;49.280;7.214;2023-04-19T02:25:39;99320.84;;;18.90;43.56
74649;BME280;63168;49.280;7.214;2023-04-19T02:28:05;99325.22;;;18.91;43.14
74649;BME280;63168;49.280;7.214;2023-04-19T02:30:32;99326.16;;;18.90;43.08
74649;BME280;63168;49.280;7.214;2023-04-19T02:32:57;99324.47;;;18.89;43.55
74649;BME280;63168;49.280;7.214;2023-04-19T02:35:22;99320.03;;;18.90;43.39
74649;BME280;63168;49.280;7.214;2023-04-19T02:37:48;99328.81;;;18.90;43.38
74649;BME280;63168;49.280;7.214;2023-04-19T02:40:13;99321.81;;;18.89;43.20
74649;BME280;63168;49.280;7.214;2023-04-19T02:42:39;99317.50;;;18.88;43.35
74649;BME280;63168;49.280;7.214;2023-04-19T02:45:05;99323.63;;;18.89;43.18
74649;BME280;63168;49.280;7.214;2023-04-19T02:47:32;99327.16;;;18.89;43.33
74649;BME280;63168;49.280;7.214;2023-04-19T02:49:58;99323.63;;;18.89;43.12
74649;BME280;63168;49.280;7.214;2023-04-19T02:52:24;99326.28;;;18.89;43.55
74649;BME280;63168;49.280;7.214;2023-04-19T02:54:50;99330.78;;;18.88;43.63
74649;BME280;63168;49.280;7.214;2023-04-19T02:57:15;99321.94;;;18.88;43.49
74649;BME280;63168;49.280;7.214;2023-04-19T02:59:41;99318.47;;;18.87;43.50
74649;BME280;63168;49.280;7.214;2023-04-19T03:02:06;99328.13;;;18.88;43.30
74649;BME280;63168;49.280;7.214;2023-04-19T03:04:33;99322.91;;;18.87;43.19
74649;BME280;63168;49.280;7.214;2023-04-19T03:06:58;99325.56;;;18.87;43.56
74649;BME280;63168;49.280;7.214;2023-04-19T03:09:24;99324.72;;;18.86;43.46
74649;BME280;63168;49.280;7.214;2023-04-19T03:11:49;99325.56;;;18.87;43.57
74649;BME280;63168;49.280;7.214;2023-04-19T03:14:15;99322.06;;;18.86;43.35
74649;BME280;63168;49.280;7.214;2023-04-19T03:16:40;99320.38;;;18.85;43.58
74649;BME280;63168;49.280;7.214;2023-04-19T03:19:06;99323.03;;;18.85;43.40
74649;BME280;63168;49.280;7.214;2023-04-19T03:21:32;99315.91;;;18.86;43.30
74649;BME280;63168;49.280;7.214;2023-04-19T03:23:58;99316.84;;;18.85;43.54
74649;BME280;63168;49.280;7.214;2023-04-19T03:26:23;99313.38;;;18.84;43.09
74649;BME280;63168;49.280;7.214;2023-04-19T03:28:49;99315.06;;;18.85;43.11
74649;BME280;63168;49.280;7.214;2023-04-19T03:31:15;99312.41;;;18.85;43.57
74649;BME280;63168;49.280;7.214;2023-04-19T03:33:40;99306.34;;;18.83;43.32
74649;BME280;63168;49.280;7.214;2023-04-19T03:36:06;99308.06;;;18.84;43.42
74649;BME280;63168;49.280;7.214;2023-04-19T03:38:33;99303.69;;;18.83;43.09
74649;BME280;63168;49.280;7.214;2023-04-19T03:40:58;99300.81;;;18.86;44.61
74649;BME280;63168;49.280;7.214;2023-04-19T03:43:24;99296.00;;;18.91;45.25
74649;BME280;63168;49.280;7.214;2023-04-19T03:45:49;99301.03;;;18.95;44.61
74649;BME280;63168;49.280;7.214;2023-04-19T03:48:15;99289.47;;;18.96;44.47
74649;BME280;63168;49.280;7.214;2023-04-19T03:50:40;99289.34;;;18.97;44.81
74649;BME280;63168;49.280;7.214;2023-04-19T03:53:06;99283.31;;;18.95;44.24
74649;BME280;63168;49.280;7.214;2023-04-19T03:55:33;99288.72;;;18.94;44.50
74649;BME280;63168;49.280;7.214;2023-04-19T03:57:58;99280.88;;;18.92;44.56
74649;BME280;63168;49.280;7.214;2023-04-19T04:00:23;99288.84;;;18.92;43.98
74649;BME280;63168;49.280;7.214;2023-04-19T04:02:49;99280.88;;;18.92;43.90
74649;BME280;63168;49.280;7.214;2023-04-19T04:05:14;99281.84;;;18.91;43.89
74649;BME280;63168;49.280;7.214;2023-04-19T04:07:40;99283.66;;;18.90;43.98
74649;BME280;63168;49.280;7.214;2023-04-19T04:10:06;99288.13;;;18.90;44.20
74649;BME280;63168;49.280;7.214;2023-04-19T04:12:33;99289.09;;;18.89;43.75
74649;BME280;63168;49.280;7.214;2023-04-19T04:14:59;99287.28;;;18.89;43.94
74649;BME280;63168;49.280;7.214;2023-04-19T04:17:24;99291.88;;;18.87;43.79
74649;BME280;63168;49.280;7.214;2023-04-19T04:19:49;99286.56;;;18.87;43.87
74649;BME280;63168;49.280;7.214;2023-04-19T04:22:15;99287.50;;;18.86;43.85
74649;BME280;63168;49.280;7.214;2023-04-19T04:24:41;99284.03;;;18.86;43.95
74649;BME280;63168;49.280;7.214;2023-04-19T04:27:07;99284.03;;;18.86;43.79
74649;BME280;63168;49.280;7.214;2023-04-19T04:29:36;99283.19;;;18.85;43.53
74649;BME280;63168;49.280;7.214;2023-04-19T04:32:01;99284.97;;;18.85;43.92
74649;BME280;63168;49.280;7.214;2023-04-19T04:34:27;99291.16;;;18.85;43.87
74649;BME280;63168;49.280;7.214;2023-04-19T04:36:52;99300.91;;;18.85;43.81
74649;BME280;63168;49.280;7.214;2023-04-19T04:39:18;99302.75;;;18.84;44.01
74649;BME280;63168;49.280;7.214;2023-04-19T04:41:43;99297.44;;;18.84;43.52
74649;BME280;63168;49.280;7.214;2023-04-19T04:44:10;99298.38;;;18.83;43.63
74649;BME280;63168;49.280;7.214;2023-04-19T04:46:37;99295.72;;;18.83;43.48
74649;BME280;63168;49.280;7.214;2023-04-19T04:49:03;99297.53;;;18.83;43.65
74649;BME280;63168;49.280;7.214;2023-04-19T04:51:28;99296.69;;;18.82;43.36
74649;BME280;63168;49.280;7.214;2023-04-19T04:53:53;99294.03;;;18.82;43.55
74649;BME280;63168;49.280;7.214;2023-04-19T04:56:19;99306.47;;;18.82;43.83
74649;BME280;63168;49.280;7.214;2023-04-19T04:58:44;99299.34;;;18.82;43.31
74649;BME280;63168;49.280;7.214;2023-04-19T05:01:09;99296.69;;;18.82;43.75
74649;BME280;63168;49.280;7.214;2023-04-19T05:03:36;99297.66;;;18.81;43.74
74649;BME280;63168;49.280;7.214;2023-04-19T05:06:02;99302.00;;;18.82;43.30
74649;BME280;63168;49.280;7.214;2023-04-19T05:08:27;99302.97;;;18.81;43.28
74649;BME280;63168;49.280;7.214;2023-04-19T05:10:53;99296.91;;;18.79;43.72
74649;BME280;63168;49.280;7.214;2023-04-19T05:13:18;99300.31;;;18.81;43.69
74649;BME280;63168;49.280;7.214;2023-04-19T05:15:44;99298.63;;;18.80;43.81
74649;BME280;63168;49.280;7.214;2023-04-19T05:18:09;99297.78;;;18.80;43.47
74649;BME280;63168;49.280;7.214;2023-04-19T05:20:36;99290.78;;;18.78;43.68
74649;BME280;63168;49.280;7.214;2023-04-19T05:23:01;99300.56;;;18.78;43.55
74649;BME280;63168;49.280;7.214;2023-04-19T05:25:27;99296.09;;;18.78;43.26
74649;BME280;63168;49.280;7.214;2023-04-19T05:27:53;99304.06;;;18.78;43.62
74649;BME280;63168;49.280;7.214;2023-04-19T05:30:19;99307.56;;;18.79;43.56
74649;BME280;63168;49.280;7.214;2023-04-19T05:32:44;99302.25;;;18.79;43.70
74649;BME280;63168;49.280;7.214;2023-04-19T05:35:10;99305.00;;;18.77;43.49
74649;BME280;63168;49.280;7.214;2023-04-19T05:37:37;99305.88;;;18.78;43.23
74649;BME280;63168;49.280;7.214;2023-04-19T05:40:03;99305.00;;;18.77;43.23
74649;BME280;63168;49.280;7.214;2023-04-19T05:42:34;99306.84;;;18.77;43.41
74649;BME280;63168;49.280;7.214;2023-04-19T05:44:59;99305.00;;;18.77;43.47
74649;BME280;63168;49.280;7.214;2023-04-19T05:47:25;99307.66;;;18.77;43.39
74649;BME280;63168;49.280;7.214;2023-04-19T05:49:50;99305.88;;;18.78;43.18
74649;BME280;63168;49.280;7.214;2023-04-19T05:52:15;99308.53;;;18.78;43.28
74649;BME280;63168;49.280;7.214;2023-04-19T05:54:42;99311.19;;;18.78;43.50
74649;BME280;63168;49.280;7.214;2023-04-19T05:57:08;99308.53;;;18.78;43.19
74649;BME280;63168;49.280;7.214;2023-04-19T05:59:34;99320.13;;;18.77;43.56
74649;BME280;63168;49.280;7.214;2023-04-19T06:01:59;99321.81;;;18.78;43.25
74649;BME280;63168;49.280;7.214;2023-04-19T06:04:25;99315.63;;;18.77;43.21
74649;BME280;63168;49.280;7.214;2023-04-19T06:06:51;99320.13;;;18.77;43.30
74649;BME280;63168;49.280;7.214;2023-04-19T06:09:16;99322.78;;;18.77;43.07
74649;BME280;63168;49.280;7.214;2023-04-19T06:11:44;99327.13;;;18.78;43.49
74649;BME280;63168;49.280;7.214;2023-04-19T06:14:09;99321.81;;;18.78;43.26
74649;BME280;63168;49.280;7.214;2023-04-19T06:16:35;99321.81;;;18.78;43.44
74649;BME280;63168;49.280;7.214;2023-04-19T06:19:00;99327.13;;;18.78;43.41
74649;BME280;63168;49.280;7.214;2023-04-19T06:21:25;99327.97;;;18.78;43.46
74649;BME280;63168;49.280;7.214;2023-04-19T06:23:51;99333.28;;;18.78;43.31
74649;BME280;63168;49.280;7.214;2023-04-19T06:26:16;99330.63;;;18.78;43.07
74649;BME280;63168;49.280;7.214;2023-04-19T06:28:43;99323.50;;;18.79;43.29
74649;BME280;63168;49.280;7.214;2023-04-19T06:31:08;99323.50;;;18.79;43.05
74649;BME280;63168;49.280;7.214;2023-04-19T06:33:34;99328.81;;;18.79;42.98
74649;BME280;63168;49.280;7.214;2023-04-19T06:35:59;99320.84;;;18.79;43.45
74649;BME280;63168;49.280;7.214;2023-04-19T06:38:24;99325.22;;;18.80;42.98
74649;BME280;63168;49.280;7.214;2023-04-19T06:40:50;99326.16;;;18.79;43.20
74649;BME280;63168;49.280;7.214;2023-04-19T06:43:15;99324.34;;;18.80;43.38
74649;BME280;63168;49.280;7.214;2023-04-19T06:45:42;99319.91;;;18.80;43.03
74649;BME280;63168;49.280;7.214;2023-04-19T06:48:07;99325.31;;;18.78;43.04
74649;BME280;63168;49.280;7.214;2023-04-19T06:50:33;99323.50;;;18.79;43.36
74649;BME280;63168;49.280;7.214;2023-04-19T06:52:58;99334.97;;;18.80;43.16
74649;BME280;63168;49.280;7.214;2023-04-19T06:55:24;99325.22;;;18.80;42.58
74649;BME280;63168;49.280;7.214;2023-04-19T06:57:49;99324.34;;;18.80;43.07
74649;BME280;63168;49.280;7.214;2023-04-19T07:00:15;99319.91;;;18.80;43.00
74649;BME280;63168;49.280;7.214;2023-04-19T07:02:42;99319.91;;;18.80;43.40
74649;BME280;63168;49.280;7.214;2023-04-19T07:05:07;99323.38;;;18.81;43.34
74649;BME280;63168;49.280;7.214;2023-04-19T07:07:33;99323.38;;;18.81;43.17
74649;BME280;63168;49.280;7.214;2023-04-19T07:09:58;99326.03;;;18.81;43.14
74649;BME280;63168;49.280;7.214;2023-04-19T07:12:24;99322.56;;;18.80;43.04
74649;BME280;63168;49.280;7.214;2023-04-19T07:14:49;99321.56;;;18.81;43.37
74649;BME280;63168;49.280;7.214;2023-04-19T07:17:20;99318.91;;;18.81;42.98
74649;BME280;63168;49.280;7.214;2023-04-19T07:19:47;99321.56;;;18.81;42.90
74649;BME280;63168;49.280;7.214;2023-04-19T07:22:13;99321.56;;;18.81;43.37
74649;BME280;63168;49.280;7.214;2023-04-19T07:24:39;99325.06;;;18.82;43.36
74649;BME280;63168;49.280;7.214;2023-04-19T07:27:06;99317.09;;;18.82;43.09
74649;BME280;63168;49.280;7.214;2023-04-19T07:29:33;99317.09;;;18.82;43.17
74649;BME280;63168;49.280;7.214;2023-04-19T07:31:58;99320.59;;;18.82;43.27
74649;BME280;63168;49.280;7.214;2023-04-19T07:34:25;99316.25;;;18.81;42.89
74649;BME280;63168;49.280;7.214;2023-04-19T07:36:52;99317.94;;;18.82;43.23
74649;BME280;63168;49.280;7.214;2023-04-19T07:39:17;99319.63;;;18.83;43.24
74649;BME280;63168;49.280;7.214;2023-04-19T07:41:43;99324.94;;;18.83;43.32
74649;BME280;63168;49.280;7.214;2023-04-19T07:44:09;99325.06;;;18.82;43.32
74649;BME280;63168;49.280;7.214;2023-04-19T07:46:36;99316.16;;;18.83;43.27
74649;BME280;63168;49.280;7.214;2023-04-19T07:49:01;99322.28;;;18.83;43.05
74649;BME280;63168;49.280;7.214;2023-04-19T07:51:27;99316.97;;;18.83;42.89
74649;BME280;63168;49.280;7.214;2023-04-19T07:53:54;99318.69;;;18.84;43.16
74649;BME280;63168;49.280;7.214;2023-04-19T07:56:21;99321.34;;;18.84;43.08
74649;BME280;63168;49.280;7.214;2023-04-19T07:58:46;99318.69;;;18.84;43.22
74649;BME280;63168;49.280;7.214;2023-04-19T08:01:12;99322.16;;;18.85;42.99
74649;BME280;63168;49.280;7.214;2023-04-19T08:03:37;99317.72;;;18.85;43.32
74649;BME280;63168;49.280;7.214;2023-04-19T08:06:04;99313.38;;;18.84;43.10
74649;BME280;63168;49.280;7.214;2023-04-19T08:08:31;99310.72;;;18.84;42.94
74649;BME280;63168;49.280;7.214;2023-04-19T08:10:58;99307.09;;;18.85;43.07
74649;BME280;63168;49.280;7.214;2023-04-19T08:13:23;99304.44;;;18.85;42.97
74649;BME280;63168;49.280;7.214;2023-04-19T08:15:48;99305.28;;;18.86;42.85
74649;BME280;63168;49.280;7.214;2023-04-19T08:18:14;99307.94;;;18.86;42.89
74649;BME280;63168;49.280;7.214;2023-04-19T08:20:39;99307.94;;;18.86;43.10
74649;BME280;63168;49.280;7.214;2023-04-19T08:23:08;99298.16;;;18.86;42.77
74649;BME280;63168;49.280;7.214;2023-04-19T08:25:33;99298.16;;;18.86;43.19
74649;BME280;63168;49.280;7.214;2023-04-19T08:28:00;99299.84;;;18.87;42.94
74649;BME280;63168;49.280;7.214;2023-04-19T08:30:26;99294.53;;;18.87;43.10
74649;BME280;63168;49.280;7.214;2023-04-19T08:32:51;99291.88;;;18.87;42.79
74649;BME280;63168;49.280;7.214;2023-04-19T08:35:16;99291.88;;;18.87;43.21
74649;BME280;63168;49.280;7.214;2023-04-19T08:37:42;99292.59;;;18.89;43.21
74649;BME280;63168;49.280;7.214;2023-04-19T08:40:08;99289.09;;;18.89;42.90
74649;BME280;63168;49.280;7.214;2023-04-19T08:42:35;99288.25;;;18.88;42.79
74649;BME280;63168;49.280;7.214;2023-04-19T08:45:02;99285.59;;;18.88;42.68
74649;BME280;63168;49.280;7.214;2023-04-19T08:47:31;99282.94;;;18.88;42.92
74649;BME280;63168;49.280;7.214;2023-04-19T08:49:59;99291.75;;;18.89;43.03
74649;BME280;63168;49.280;7.214;2023-04-19T08:52:26;99293.47;;;18.90;42.90
74649;BME280;63168;49.280;7.214;2023-04-19T08:54:53;99287.28;;;18.89;43.04
74649;BME280;63168;49.280;7.214;2023-04-19T08:57:18;99284.63;;;18.89;42.72
74649;BME280;63168;49.280;7.214;2023-04-19T08:59:44;99287.28;;;18.89;42.82
74649;BME280;63168;49.280;7.214;2023-04-19T09:02:14;99288.97;;;18.90;43.13
74649;BME280;63168;49.280;7.214;2023-04-19T09:04:40;99288.13;;;18.90;42.71
74649;BME280;63168;49.280;7.214;2023-04-19T09:07:05;99283.66;;;18.90;42.92
74649;BME280;63168;49.280;7.214;2023-04-19T09:09:32;99286.31;;;18.90;43.17
74649;BME280;63168;49.280;7.214;2023-04-19T09:11:58;99286.31;;;18.90;43.10
74649;BME280;63168;49.280;7.214;2023-04-19T09:14:27;99290.69;;;18.91;43.03
74649;BME280;63168;49.280;7.214;2023-04-19T09:16:52;99285.38;;;18.91;42.99
74649;BME280;63168;49.280;7.214;2023-04-19T09:19:19;99285.38;;;18.91;42.91
74649;BME280;63168;49.280;7.214;2023-04-19T09:21:45;99280.06;;;18.91;42.91
74649;BME280;63168;49.280;7.214;2023-04-19T09:24:11;99273.88;;;18.91;43.10
74649;BME280;63168;49.280;7.214;2023-04-19T09:26:36;99274.75;;;18.91;42.97
74649;BME280;63168;49.280;7.214;2023-04-19T09:29:03;99275.56;;;18.92;42.89
74649;BME280;63168;49.280;7.214;2023-04-19T09:31:30;99285.25;;;18.93;43.03
74649;BME280;63168;49.280;7.214;2023-04-19T09:33:55;99280.06;;;18.91;43.12
74649;BME280;63168;49.280;7.214;2023-04-19T09:36:29;99273.75;;;18.93;43.06
74649;BME280;63168;49.280;7.214;2023-04-19T09:38:55;99270.25;;;18.92;43.02
74649;BME280;63168;49.280;7.214;2023-04-19T09:41:22;99266.75;;;18.91;43.16
74649;BME280;63168;49.280;7.214;2023-04-19T09:43:47;99269.41;;;18.91;43.10
74649;BME280;63168;49.280;7.214;2023-04-19T09:46:29;99258.69;;;18.93;42.82
74649;BME280;63168;49.280;7.214;2023-04-19T09:49:17;99256.03;;;18.93;42.85
74649;BME280;63168;49.280;7.214;2023-04-19T09:51:50;99262.16;;;18.94;42.75
74649;BME280;63168;49.280;7.214;2023-04-19T09:54:17;99247.06;;;18.94;43.02
74649;BME280;63168;49.280;7.214;2023-04-19T09:56:43;99252.38;;;18.94;43.22
74649;BME280;63168;49.280;7.214;2023-04-19T09:59:10;99248.75;;;18.95;43.12
74649;BME280;63168;49.280;7.214;2023-04-19T10:01:38;99246.09;;;18.95;43.12
74649;BME280;63168;49.280;7.214;2023-04-19T10:04:04;99237.28;;;18.95;42.81
74649;BME280;63168;49.280;7.214;2023-04-19T10:06:31;99240.78;;;18.95;43.10
74649;BME280;63168;49.280;7.214;2023-04-19T10:09:00;99245.25;;;18.95;42.83
74649;BME280;63168;49.280;7.214;2023-04-19T10:11:30;99238.97;;;18.96;43.02
74649;BME280;63168;49.280;7.214;2023-04-19T10:13:59;99240.66;;;18.97;43.00
74649;BME280;63168;49.280;7.214;2023-04-19T10:16:26;99236.31;;;18.96;42.74
74649;BME280;63168;49.280;7.214;2023-04-19T10:18:51;99238.97;;;18.96;42.89
74649;BME280;63168;49.280;7.214;2023-04-19T10:21:18;99228.34;;;18.96;42.79
74649;BME280;63168;49.280;7.214;2023-04-19T10:23:44;99238.00;;;18.97;42.57
74649;BME280;63168;49.280;7.214;2023-04-19T10:26:11;99232.69;;;18.97;42.85
74649;BME280;63168;49.280;7.214;2023-04-19T10:28:36;99230.03;;;18.97;42.72
74649;BME280;63168;49.280;7.214;2023-04-19T10:31:03;99232.69;;;18.97;42.67
74649;BME280;63168;49.280;7.214;2023-04-19T10:33:30;99229.06;;;18.98;43.12
74649;BME280;63168;49.280;7.214;2023-04-19T10:35:57;99230.91;;;18.97;43.02
74649;BME280;63168;49.280;7.214;2023-04-19T10:38:36;99221.09;;;18.98;42.70
74649;BME280;63168;49.280;7.214;2023-04-19T10:41:02;99221.09;;;18.98;42.63
74649;BME280;63168;49.280;7.214;2023-04-19T10:43:31;99218.44;;;18.98;43.08
74649;BME280;63168;49.280;7.214;2023-04-19T10:45:59;99224.59;;;18.98;42.80
74649;BME280;63168;49.280;7.214;2023-04-19T10:48:40;99214.81;;;18.99;42.65
74649;BME280;63168;49.280;7.214;2023-04-19T10:51:12;99212.16;;;18.99;42.98
74649;BME280;63168;49.280;7.214;2023-04-19T10:53:54;99206.00;;;18.98;42.99
74649;BME280;63168;49.280;7.214;2023-04-19T10:56:22;99197.06;;;18.99;42.71
74649;BME280;63168;49.280;7.214;2023-04-19T10:59:13;99203.22;;;19.00;42.97
74649;BME280;63168;49.280;7.214;2023-04-19T11:01:47;99199.72;;;18.99;43.01
74649;BME280;63168;49.280;7.214;2023-04-19T11:04:13;99203.22;;;19.00;42.80
74649;BME280;63168;49.280;7.214;2023-04-19T11:06:56;99197.91;;;19.00;42.95
74649;BME280;63168;49.280;7.214;2023-04-19T11:09:26;99192.59;;;19.00;42.80
74649;BME280;63168;49.280;7.214;2023-04-19T11:11:52;99188.97;;;19.01;42.91
74649;BME280;63168;49.280;7.214;2023-04-19T11:14:20;99184.63;;;19.00;42.58
74649;BME280;63168;49.280;7.214;2023-04-19T11:16:45;99172.16;;;19.00;42.68
74649;BME280;63168;49.280;7.214;2023-04-19T11:19:14;99175.66;;;19.01;42.54
74649;BME280;63168;49.280;7.214;2023-04-19T11:21:39;99179.19;;;19.01;42.63
74649;BME280;63168;49.280;7.214;2023-04-19T11:24:05;99175.56;;;19.02;42.93
74649;BME280;63168;49.280;7.214;2023-04-19T11:26:32;99174.69;;;19.02;42.69
74649;BME280;63168;49.280;7.214;2023-04-19T11:28:57;99178.22;;;19.02;42.90
74649;BME280;63168;49.280;7.214;2023-04-19T11:31:24;99167.56;;;19.02;42.61
74649;BME280;63168;49.280;7.214;2023-04-19T11:33:50;99169.38;;;19.02;42.98
74649;BME280;63168;49.280;7.214;2023-04-19T11:36:15;99161.41;;;19.02;42.82
74649;BME280;63168;49.280;7.214;2023-04-19T11:38:46;99155.16;;;19.03;42.87
74649;BME280;63168;49.280;7.214;2023-04-19T11:41:11;99159.59;;;19.02;42.99
74649;BME280;63168;49.280;7.214;2023-04-19T11:43:37;99157.81;;;19.03;42.95
74649;BME280;63168;49.280;7.214;2023-04-19T11:46:05;99155.16;;;19.03;42.67
74649;BME280;63168;49.280;7.214;2023-04-19T11:48:32;99149.84;;;19.03;42.77
74649;BME280;63168;49.280;7.214;2023-04-19T11:50:58;99149.84;;;19.03;42.64
74649;BME280;63168;49.280;7.214;2023-04-19T11:53:27;99141.84;;;19.03;43.05
74649;BME280;63168;49.280;7.214;2023-04-19T11:55:54;99144.50;;;19.03;42.98
74649;BME280;63168;49.280;7.214;2023-04-19T11:58:24;99138.34;;;19.02;42.76
74649;BME280;63168;49.280;7.214;2023-04-19T12:00:50;99148.00;;;19.03;42.68
74649;BME280;63168;49.280;7.214;2023-04-19T12:03:15;99146.19;;;19.04;43.03
74649;BME280;63168;49.280;7.214;2023-04-19T12:05:52;99141.75;;;19.04;42.98
74649;BME280;63168;49.280;7.214;2023-04-19T12:08:29;99139.19;;;19.03;42.63
74649;BME280;63168;49.280;7.214;2023-04-19T12:10:57;99147.19;;;19.03;42.71
74649;BME280;63168;49.280;7.214;2023-04-19T12:13:23;99142.56;;;19.05;42.83
74649;BME280;63168;49.280;7.214;2023-04-19T12:15:49;99141.75;;;19.04;43.04
74649;BME280;63168;49.280;7.214;2023-04-19T12:18:14;99135.56;;;19.04;42.63
74649;BME280;63168;49.280;7.214;2023-04-19T12:20:44;99130.25;;;19.04;42.77
74649;BME280;63168;49.280;7.214;2023-04-19T12:23:11;99131.94;;;19.05;43.02
74649;BME280;63168;49.280;7.214;2023-04-19T12:25:38;99134.59;;;19.05;42.89
74649;BME280;63168;49.280;7.214;2023-04-19T12:28:04;99121.31;;;19.05;42.79
74649;BME280;63168;49.280;7.214;2023-04-19T12:30:29;99127.47;;;19.06;42.58
74649;BME280;63168;49.280;7.214;2023-04-19T12:32:55;99131.94;;;19.05;43.04
74649;BME280;63168;49.280;7.214;2023-04-19T12:35:20;99128.31;;;19.06;42.97
74649;BME280;63168;49.280;7.214;2023-04-19T12:37:46;99123.00;;;19.06;42.58
74649;BME280;63168;49.280;7.214;2023-04-19T12:40:14;99123.88;;;19.07;42.91
74649;BME280;63168;49.280;7.214;2023-04-19T12:42:40;99113.22;;;19.07;42.54
74649;BME280;63168;49.280;7.214;2023-04-19T12:45:06;99116.75;;;19.07;42.83
74649;BME280;63168;49.280;7.214;2023-04-19T12:47:31;99114.09;;;19.07;43.07
74649;BME280;63168;49.280;7.214;2023-04-19T12:49:57;99114.91;;;19.08;42.90
74649;BME280;63168;49.280;7.214;2023-04-19T12:52:22;99105.13;;;19.08;42.53
74649;BME280;63168;49.280;7.214;2023-04-19T12:54:48;99109.59;;;19.08;42.88
74649;BME280;63168;49.280;7.214;2023-04-19T12:57:17;99110.47;;;19.08;42.67